Terminal Aerodrome Forecast
Issued by NWS Upton, NY

Home | Current Version | Previous Version | Text Only | Print | Product List | Glossary On
Versions: 1 2 3 4 5 6 7 8 9 10 11 12 13 14 15 16 17 18 19 20 21 22 23 24 25 26 27 28 29 30
110
FTUS41 KOKX 071720
TAFISP
TAF
KISP 071720Z 0718/0818 36006KT P6SM BKN009 OVC012
     FM071900 33006KT P6SM SCT009 BKN020 OVC035
     FM080000 31004KT P6SM SCT020 BKN040 BKN150
     FM080500 VRB03KT P6SM FEW020 BKN150
     FM081400 27009KT P6SM BKN120=

USA.gov is the U.S. government's official web portal to all federal, state and local government web resources and services.